sensor_id;sensor_type;location;lat;lon;timestamp;temperature;humidity
74901;DHT22;63461;51.416;6.758;2022-09-27T00:02:33;11.80;99.90
74901;DHT22;63461;51.416;6.758;2022-09-27T00:05:17;11.80;99.90
74901;DHT22;63461;51.416;6.758;2022-09-27T00:08:02;11.80;99.90
74901;DHT22;63461;51.416;6.758;2022-09-27T00:10:46;11.80;99.90
74901;DHT22;63461;51.416;6.758;2022-09-27T00:13:30;11.90;99.90
74901;DHT22;63461;51.416;6.758;2022-09-27T00:16:15;11.90;99.90
74901;DHT22;63461;51.416;6.758;2022-09-27T00:19:02;11.90;99.90
74901;DHT22;63461;51.416;6.758;2022-09-27T00:21:47;11.80;99.90
74901;DHT22;63461;51.416;6.758;2022-09-27T00:24:33;11.60;99.90
74901;DHT22;63461;51.416;6.758;2022-09-27T00:27:17;11.70;99.90
74901;DHT22;63461;51.416;6.758;2022-09-27T00:30:02;11.70;99.90
74901;DHT22;63461;51.416;6.758;2022-09-27T00:32:47;11.70;99.90
74901;DHT22;63461;51.416;6.758;2022-09-27T00:35:31;11.60;99.90
74901;DHT22;63461;51.416;6.758;2022-09-27T00:38:15;11.70;99.90
74901;DHT22;63461;51.416;6.758;2022-09-27T00:41:00;11.80;99.90
74901;DHT22;63461;51.416;6.758;2022-09-27T00:43:49;11.70;99.90
74901;DHT22;63461;51.416;6.758;2022-09-27T00:46:40;11.60;99.90
74901;DHT22;63461;51.416;6.758;2022-09-27T00:52:16;11.70;99.90
74901;DHT22;63461;51.416;6.758;2022-09-27T00:55:08;11.70;99.90
74901;DHT22;63461;51.416;6.758;2022-09-27T00:57:54;11.70;99.90
74901;DHT22;63461;51.416;6.758;2022-09-27T01:00:44;11.70;99.90
74901;DHT22;63461;51.416;6.758;2022-09-27T01:06:32;11.70;99.90
74901;DHT22;63461;51.416;6.758;2022-09-27T01:09:16;11.70;99.90
74901;DHT22;63461;51.416;6.758;2022-09-27T01:12:14;11.80;99.90
74901;DHT22;63461;51.416;6.758;2022-09-27T01:21:21;11.70;99.90
74901;DHT22;63461;51.416;6.758;2022-09-27T01:33:20;11.60;99.90
74901;DHT22;63461;51.416;6.758;2022-09-27T01:48:56;11.60;99.90
74901;DHT22;63461;51.416;6.758;2022-09-27T01:51:49;11.50;99.90
74901;DHT22;63461;51.416;6.758;2022-09-27T01:54:46;11.60;99.90
74901;DHT22;63461;51.416;6.758;2022-09-27T01:57:52;11.60;99.90
74901;DHT22;63461;51.416;6.758;2022-09-27T02:00:43;11.50;99.90
74901;DHT22;63461;51.416;6.758;2022-09-27T02:03:39;11.60;99.90
74901;DHT22;63461;51.416;6.758;2022-09-27T02:07:01;11.50;99.90
74901;DHT22;63461;51.416;6.758;2022-09-27T02:10:17;11.50;99.90
74901;DHT22;63461;51.416;6.758;2022-09-27T02:13:22;11.50;99.90
74901;DHT22;63461;51.416;6.758;2022-09-27T02:16:27;11.50;99.90
74901;DHT22;63461;51.416;6.758;2022-09-27T02:25:33;11.70;99.90
74901;DHT22;63461;51.416;6.758;2022-09-27T02:28:32;11.60;99.90
74901;DHT22;63461;51.416;6.758;2022-09-27T02:31:17;11.60;99.90
74901;DHT22;63461;51.416;6.758;2022-09-27T02:34:08;11.50;99.90
74901;DHT22;63461;51.416;6.758;2022-09-27T02:36:54;11.40;99.90
74901;DHT22;63461;51.416;6.758;2022-09-27T02:39:39;11.50;99.90
74901;DHT22;63461;51.416;6.758;2022-09-27T02:42:25;11.40;99.90
74901;DHT22;63461;51.416;6.758;2022-09-27T02:45:11;11.50;99.90
74901;DHT22;63461;51.416;6.758;2022-09-27T02:48:14;11.50;99.90
74901;DHT22;63461;51.416;6.758;2022-09-27T02:51:11;11.50;99.90
74901;DHT22;63461;51.416;6.758;2022-09-27T03:04:10;11.20;99.90
74901;DHT22;63461;51.416;6.758;2022-09-27T03:06:59;11.10;99.90
74901;DHT22;63461;51.416;6.758;2022-09-27T03:09:47;11.10;99.90
74901;DHT22;63461;51.416;6.758;2022-09-27T03:12:32;11.00;99.90
74901;DHT22;63461;51.416;6.758;2022-09-27T03:15:17;11.00;99.90
74901;DHT22;63461;51.416;6.758;2022-09-27T03:18:21;11.00;99.90
74901;DHT22;63461;51.416;6.758;2022-09-27T03:21:25;10.90;99.90
74901;DHT22;63461;51.416;6.758;2022-09-27T03:24:10;10.90;99.90
74901;DHT22;63461;51.416;6.758;2022-09-27T03:26:54;10.90;99.90
74901;DHT22;63461;51.416;6.758;2022-09-27T03:29:39;11.00;99.90
74901;DHT22;63461;51.416;6.758;2022-09-27T03:32:26;11.00;99.90
74901;DHT22;63461;51.416;6.758;2022-09-27T03:35:40;10.90;99.90
74901;DHT22;63461;51.416;6.758;2022-09-27T03:38:26;10.90;99.90
74901;DHT22;63461;51.416;6.758;2022-09-27T03:41:11;10.90;99.90
74901;DHT22;63461;51.416;6.758;2022-09-27T03:43:56;10.80;99.90
74901;DHT22;63461;51.416;6.758;2022-09-27T03:46:42;10.80;99.90
74901;DHT22;63461;51.416;6.758;2022-09-27T03:49:27;10.70;99.90
74901;DHT22;63461;51.416;6.758;2022-09-27T03:52:11;10.60;99.90
74901;DHT22;63461;51.416;6.758;2022-09-27T03:54:56;10.70;99.90
74901;DHT22;63461;51.416;6.758;2022-09-27T03:57:45;10.60;99.90
74901;DHT22;63461;51.416;6.758;2022-09-27T04:00:30;10.60;99.90
74901;DHT22;63461;51.416;6.758;2022-09-27T04:03:16;10.60;99.90
74901;DHT22;63461;51.416;6.758;2022-09-27T04:06:21;10.50;99.90
74901;DHT22;63461;51.416;6.758;2022-09-27T04:09:07;10.50;99.90
74901;DHT22;63461;51.416;6.758;2022-09-27T04:12:10;10.50;99.90
74901;DHT22;63461;51.416;6.758;2022-09-27T04:14:55;10.50;99.90
74901;DHT22;63461;51.416;6.758;2022-09-27T04:18:08;10.50;99.90
74901;DHT22;63461;51.416;6.758;2022-09-27T04:20:53;10.40;99.90
74901;DHT22;63461;51.416;6.758;2022-09-27T04:23:38;10.40;99.90
74901;DHT22;63461;51.416;6.758;2022-09-27T04:26:23;10.50;99.90
74901;DHT22;63461;51.416;6.758;2022-09-27T04:29:19;10.40;99.90
74901;DHT22;63461;51.416;6.758;2022-09-27T04:32:07;10.50;99.90
74901;DHT22;63461;51.416;6.758;2022-09-27T04:35:12;10.50;99.90
74901;DHT22;63461;51.416;6.758;2022-09-27T04:38:16;10.50;99.90
74901;DHT22;63461;51.416;6.758;2022-09-27T04:41:04;10.50;99.90
74901;DHT22;63461;51.416;6.758;2022-09-27T04:43:51;10.40;99.90
74901;DHT22;63461;51.416;6.758;2022-09-27T04:46:36;10.40;99.90
74901;DHT22;63461;51.416;6.758;2022-09-27T04:49:20;10.40;99.90
74901;DHT22;63461;51.416;6.758;2022-09-27T04:52:05;10.40;99.90
74901;DHT22;63461;51.416;6.758;2022-09-27T04:54:49;10.40;99.90
74901;DHT22;63461;51.416;6.758;2022-09-27T04:57:35;10.40;99.90
74901;DHT22;63461;51.416;6.758;2022-09-27T05:00:19;10.30;99.90
74901;DHT22;63461;51.416;6.758;2022-09-27T05:03:07;10.40;99.90
74901;DHT22;63461;51.416;6.758;2022-09-27T05:06:14;10.40;99.90
74901;DHT22;63461;51.416;6.758;2022-09-27T05:08:59;10.40;99.90
74901;DHT22;63461;51.416;6.758;2022-09-27T05:11:47;10.50;99.90
74901;DHT22;63461;51.416;6.758;2022-09-27T05:14:34;10.50;99.90
74901;DHT22;63461;51.416;6.758;2022-09-27T05:17:39;10.40;99.90
74901;DHT22;63461;51.416;6.758;2022-09-27T05:20:42;10.40;99.90
74901;DHT22;63461;51.416;6.758;2022-09-27T05:23:36;10.40;99.90
74901;DHT22;63461;51.416;6.758;2022-09-27T05:26:20;10.30;99.90
74901;DHT22;63461;51.416;6.758;2022-09-27T05:29:04;10.40;99.90
74901;DHT22;63461;51.416;6.758;2022-09-27T05:31:49;10.40;99.90
74901;DHT22;63461;51.416;6.758;2022-09-27T05:34:33;10.40;99.90
74901;DHT22;63461;51.416;6.758;2022-09-27T05:37:18;10.40;99.90
74901;DHT22;63461;51.416;6.758;2022-09-27T05:40:03;10.40;99.90
74901;DHT22;63461;51.416;6.758;2022-09-27T05:42:48;10.50;99.90
74901;DHT22;63461;51.416;6.758;2022-09-27T05:45:33;10.40;99.90
74901;DHT22;63461;51.416;6.758;2022-09-27T05:48:20;10.40;99.90
74901;DHT22;63461;51.416;6.758;2022-09-27T05:51:17;10.40;99.90
74901;DHT22;63461;51.416;6.758;2022-09-27T05:54:03;10.50;99.90
74901;DHT22;63461;51.416;6.758;2022-09-27T05:56:48;10.40;99.90
74901;DHT22;63461;51.416;6.758;2022-09-27T05:59:51;10.40;99.90
74901;DHT22;63461;51.416;6.758;2022-09-27T06:02:39;10.50;99.90
74901;DHT22;63461;51.416;6.758;2022-09-27T06:05:49;10.40;99.90
74901;DHT22;63461;51.416;6.758;2022-09-27T06:08:53;10.50;99.90
74901;DHT22;63461;51.416;6.758;2022-09-27T06:11:39;10.60;99.90
74901;DHT22;63461;51.416;6.758;2022-09-27T06:14:23;10.60;99.90
74901;DHT22;63461;51.416;6.758;2022-09-27T06:17:17;10.50;99.90
74901;DHT22;63461;51.416;6.758;2022-09-27T06:20:03;10.50;99.90
74901;DHT22;63461;51.416;6.758;2022-09-27T06:22:48;10.60;99.90
74901;DHT22;63461;51.416;6.758;2022-09-27T06:25:34;10.60;99.90
74901;DHT22;63461;51.416;6.758;2022-09-27T06:28:28;10.50;99.90
74901;DHT22;63461;51.416;6.758;2022-09-27T06:31:14;10.70;99.90
74901;DHT22;63461;51.416;6.758;2022-09-27T06:34:09;10.60;99.90
74901;DHT22;63461;51.416;6.758;2022-09-27T06:36:54;10.60;99.90
74901;DHT22;63461;51.416;6.758;2022-09-27T06:39:41;10.60;99.90
74901;DHT22;63461;51.416;6.758;2022-09-27T06:43:01;10.60;99.90
74901;DHT22;63461;51.416;6.758;2022-09-27T06:46:19;10.70;99.90
74901;DHT22;63461;51.416;6.758;2022-09-27T06:49:23;10.70;99.90
74901;DHT22;63461;51.416;6.758;2022-09-27T06:52:10;10.80;99.90
74901;DHT22;63461;51.416;6.758;2022-09-27T06:54:55;10.70;99.90
74901;DHT22;63461;51.416;6.758;2022-09-27T06:57:39;10.70;99.90
74901;DHT22;63461;51.416;6.758;2022-09-27T07:00:43;10.80;99.90
74901;DHT22;63461;51.416;6.758;2022-09-27T07:03:42;10.70;99.90
74901;DHT22;63461;51.416;6.758;2022-09-27T07:06:36;10.80;99.90
74901;DHT22;63461;51.416;6.758;2022-09-27T07:09:32;10.90;99.90
74901;DHT22;63461;51.416;6.758;2022-09-27T07:12:16;10.80;99.90
74901;DHT22;63461;51.416;6.758;2022-09-27T07:15:01;10.80;99.90
74901;DHT22;63461;51.416;6.758;2022-09-27T07:17:48;10.80;99.90
74901;DHT22;63461;51.416;6.758;2022-09-27T07:20:39;10.90;99.90
74901;DHT22;63461;51.416;6.758;2022-09-27T07:23:23;11.00;99.90
74901;DHT22;63461;51.416;6.758;2022-09-27T07:26:09;11.00;99.90
74901;DHT22;63461;51.416;6.758;2022-09-27T07:28:53;11.10;99.90
74901;DHT22;63461;51.416;6.758;2022-09-27T07:31:39;11.00;99.90
74901;DHT22;63461;51.416;6.758;2022-09-27T07:34:26;11.00;99.90
74901;DHT22;63461;51.416;6.758;2022-09-27T07:37:11;11.10;99.90
74901;DHT22;63461;51.416;6.758;2022-09-27T07:39:57;11.10;99.90
74901;DHT22;63461;51.416;6.758;2022-09-27T07:42:42;11.00;99.90
74901;DHT22;63461;51.416;6.758;2022-09-27T07:45:31;11.20;99.90
74901;DHT22;63461;51.416;6.758;2022-09-27T07:48:50;11.30;99.90
74901;DHT22;63461;51.416;6.758;2022-09-27T07:52:01;11.30;99.90
74901;DHT22;63461;51.416;6.758;2022-09-27T07:54:52;11.40;99.90
74901;DHT22;63461;51.416;6.758;2022-09-27T07:58:01;11.50;99.90
74901;DHT22;63461;51.416;6.758;2022-09-27T08:00:46;11.50;99.90
74901;DHT22;63461;51.416;6.758;2022-09-27T08:03:34;11.40;99.90
74901;DHT22;63461;51.416;6.758;2022-09-27T08:06:19;11.30;99.90
74901;DHT22;63461;51.416;6.758;2022-09-27T08:09:05;11.30;99.90
74901;DHT22;63461;51.416;6.758;2022-09-27T08:11:51;11.40;99.90
74901;DHT22;63461;51.416;6.758;2022-09-27T08:14:35;11.50;99.90
74901;DHT22;63461;51.416;6.758;2022-09-27T08:17:20;11.50;99.90
74901;DHT22;63461;51.416;6.758;2022-09-27T08:20:25;11.60;99.90
74901;DHT22;63461;51.416;6.758;2022-09-27T08:23:41;11.60;99.90
74901;DHT22;63461;51.416;6.758;2022-09-27T08:26:36;11.70;99.90
74901;DHT22;63461;51.416;6.758;2022-09-27T08:29:28;11.70;99.90
74901;DHT22;63461;51.416;6.758;2022-09-27T08:32:13;11.60;99.90
74901;DHT22;63461;51.416;6.758;2022-09-27T08:34:59;11.70;99.90
74901;DHT22;63461;51.416;6.758;2022-09-27T08:37:52;11.80;99.90
74901;DHT22;63461;51.416;6.758;2022-09-27T08:53:21;11.60;99.90
74901;DHT22;63461;51.416;6.758;2022-09-27T08:56:08;11.70;99.90
74901;DHT22;63461;51.416;6.758;2022-09-27T08:59:03;11.70;99.90
74901;DHT22;63461;51.416;6.758;2022-09-27T09:01:53;11.80;99.90
74901;DHT22;63461;51.416;6.758;2022-09-27T09:04:55;11.70;99.90
74901;DHT22;63461;51.416;6.758;2022-09-27T09:14:12;11.80;99.90
74901;DHT22;63461;51.416;6.758;2022-09-27T09:32:54;12.00;99.90
74901;DHT22;63461;51.416;6.758;2022-09-27T09:38:46;12.00;99.90
74901;DHT22;63461;51.416;6.758;2022-09-27T09:42:29;12.10;99.90
74901;DHT22;63461;51.416;6.758;2022-09-27T09:50:59;12.40;99.90
74901;DHT22;63461;51.416;6.758;2022-09-27T09:56:43;12.40;99.90
74901;DHT22;63461;51.416;6.758;2022-09-27T10:02:45;12.40;99.90
74901;DHT22;63461;51.416;6.758;2022-09-27T10:05:34;12.50;99.90
74901;DHT22;63461;51.416;6.758;2022-09-27T10:08:25;12.50;99.90
74901;DHT22;63461;51.416;6.758;2022-09-27T10:11:38;12.60;99.90
74901;DHT22;63461;51.416;6.758;2022-09-27T10:14:27;12.70;99.90
74901;DHT22;63461;51.416;6.758;2022-09-27T10:17:19;12.80;99.90
74901;DHT22;63461;51.416;6.758;2022-09-27T10:20:05;12.90;99.90
74901;DHT22;63461;51.416;6.758;2022-09-27T10:22:53;12.90;99.90
74901;DHT22;63461;51.416;6.758;2022-09-27T10:26:04;12.90;99.90
74901;DHT22;63461;51.416;6.758;2022-09-27T10:29:34;13.00;99.90
74901;DHT22;63461;51.416;6.758;2022-09-27T10:32:32;12.90;99.90
74901;DHT22;63461;51.416;6.758;2022-09-27T10:35:59;12.80;99.90
74901;DHT22;63461;51.416;6.758;2022-09-27T10:38:55;12.90;99.90
74901;DHT22;63461;51.416;6.758;2022-09-27T10:41:48;12.90;99.90
74901;DHT22;63461;51.416;6.758;2022-09-27T10:44:43;12.80;99.90
74901;DHT22;63461;51.416;6.758;2022-09-27T10:47:47;12.80;99.90
74901;DHT22;63461;51.416;6.758;2022-09-27T10:51:01;12.70;99.90
74901;DHT22;63461;51.416;6.758;2022-09-27T10:53:54;12.90;99.90
74901;DHT22;63461;51.416;6.758;2022-09-27T10:57:04;12.90;99.90
74901;DHT22;63461;51.416;6.758;2022-09-27T10:59:54;12.90;99.90
74901;DHT22;63461;51.416;6.758;2022-09-27T11:02:39;12.70;99.90
74901;DHT22;63461;51.416;6.758;2022-09-27T11:05:34;12.40;99.90
74901;DHT22;63461;51.416;6.758;2022-09-27T11:08:23;12.60;99.90
74901;DHT22;63461;51.416;6.758;2022-09-27T11:11:25;12.70;99.90
74901;DHT22;63461;51.416;6.758;2022-09-27T11:14:19;12.60;99.90
74901;DHT22;63461;51.416;6.758;2022-09-27T11:17:44;12.60;99.90
74901;DHT22;63461;51.416;6.758;2022-09-27T11:20:42;12.70;99.90
74901;DHT22;63461;51.416;6.758;2022-09-27T11:23:41;12.90;99.90
74901;DHT22;63461;51.416;6.758;2022-09-27T11:57:26;13.10;99.90
74901;DHT22;63461;51.416;6.758;2022-09-27T12:00:20;13.20;99.90
74901;DHT22;63461;51.416;6.758;2022-09-27T12:06:19;12.80;99.90
74901;DHT22;63461;51.416;6.758;2022-09-27T12:09:08;12.50;99.90
74901;DHT22;63461;51.416;6.758;2022-09-27T12:12:09;12.50;99.90
74901;DHT22;63461;51.416;6.758;2022-09-27T12:15:03;12.60;99.90
74901;DHT22;63461;51.416;6.758;2022-09-27T12:17:53;12.70;99.90
74901;DHT22;63461;51.416;6.758;2022-09-27T12:20:41;12.80;99.90
74901;DHT22;63461;51.416;6.758;2022-09-27T12:23:44;12.80;99.90
74901;DHT22;63461;51.416;6.758;2022-09-27T12:26:40;12.80;99.90
74901;DHT22;63461;51.416;6.758;2022-09-27T12:29:34;12.80;99.90
74901;DHT22;63461;51.416;6.758;2022-09-27T12:35:31;12.80;99.90
74901;DHT22;63461;51.416;6.758;2022-09-27T12:38:34;12.50;99.90
74901;DHT22;63461;51.416;6.758;2022-09-27T12:41:22;12.50;99.90
74901;DHT22;63461;51.416;6.758;2022-09-27T12:44:18;12.60;99.90
74901;DHT22;63461;51.416;6.758;2022-09-27T12:50:27;12.60;99.90
74901;DHT22;63461;51.416;6.758;2022-09-27T12:53:24;12.60;99.90
74901;DHT22;63461;51.416;6.758;2022-09-27T12:56:39;12.80;99.90
74901;DHT22;63461;51.416;6.758;2022-09-27T13:14:39;13.00;99.90
74901;DHT22;63461;51.416;6.758;2022-09-27T13:17:51;13.10;99.90
74901;DHT22;63461;51.416;6.758;2022-09-27T13:20:58;13.10;99.90
74901;DHT22;63461;51.416;6.758;2022-09-27T13:23:58;13.30;99.90
74901;DHT22;63461;51.416;6.758;2022-09-27T13:26:49;13.20;99.90
74901;DHT22;63461;51.416;6.758;2022-09-27T13:29:34;13.20;99.90
74901;DHT22;63461;51.416;6.758;2022-09-27T13:32:26;13.10;99.90
74901;DHT22;63461;51.416;6.758;2022-09-27T13:35:23;13.10;99.90
74901;DHT22;63461;51.416;6.758;2022-09-27T13:38:28;13.40;99.90
74901;DHT22;63461;51.416;6.758;2022-09-27T13:41:17;13.40;99.90
74901;DHT22;63461;51.416;6.758;2022-09-27T13:53:29;13.30;99.90
74901;DHT22;63461;51.416;6.758;2022-09-27T14:00:04;13.50;99.90
74901;DHT22;63461;51.416;6.758;2022-09-27T14:03:48;13.40;99.90
74901;DHT22;63461;51.416;6.758;2022-09-27T14:06:42;13.40;99.90
74901;DHT22;63461;51.416;6.758;2022-09-27T14:09:40;13.50;99.90
74901;DHT22;63461;51.416;6.758;2022-09-27T14:12:47;13.50;99.90
74901;DHT22;63461;51.416;6.758;2022-09-27T14:15:33;13.40;99.90
74901;DHT22;63461;51.416;6.758;2022-09-27T14:18:21;13.60;99.90
74901;DHT22;63461;51.416;6.758;2022-09-27T14:21:31;13.50;99.90
74901;DHT22;63461;51.416;6.758;2022-09-27T14:24:43;13.50;99.90
74901;DHT22;63461;51.416;6.758;2022-09-27T14:27:36;13.40;99.90
74901;DHT22;63461;51.416;6.758;2022-09-27T14:30:29;13.50;99.90
74901;DHT22;63461;51.416;6.758;2022-09-27T14:33:44;13.20;99.90
74901;DHT22;63461;51.416;6.758;2022-09-27T14:36:32;13.30;99.90
74901;DHT22;63461;51.416;6.758;2022-09-27T14:39:36;13.20;99.90
74901;DHT22;63461;51.416;6.758;2022-09-27T14:42:36;13.20;99.90
74901;DHT22;63461;51.416;6.758;2022-09-27T14:45:34;13.20;99.90
74901;DHT22;63461;51.416;6.758;2022-09-27T14:48:27;13.20;99.90
74901;DHT22;63461;51.416;6.758;2022-09-27T14:53:59;13.20;99.90
74901;DHT22;63461;51.416;6.758;2022-09-27T14:56:47;13.20;99.90
74901;DHT22;63461;51.416;6.758;2022-09-27T14:59:35;13.50;99.90
74901;DHT22;63461;51.416;6.758;2022-09-27T15:02:21;13.40;99.90
74901;DHT22;63461;51.416;6.758;2022-09-27T15:05:20;13.50;99.90
74901;DHT22;63461;51.416;6.758;2022-09-27T15:08:05;13.50;99.90
74901;DHT22;63461;51.416;6.758;2022-09-27T15:10:50;13.50;99.90
74901;DHT22;63461;51.416;6.758;2022-09-27T15:13:35;13.50;99.90
74901;DHT22;63461;51.416;6.758;2022-09-27T15:16:21;13.70;99.90
74901;DHT22;63461;51.416;6.758;2022-09-27T15:19:22;13.50;99.90
74901;DHT22;63461;51.416;6.758;2022-09-27T15:22:33;13.30;99.90
74901;DHT22;63461;51.416;6.758;2022-09-27T15:25:21;13.20;99.90
74901;DHT22;63461;51.416;6.758;2022-09-27T15:30:57;13.10;99.90
74901;DHT22;63461;51.416;6.758;2022-09-27T15:33:52;13.20;99.90
74901;DHT22;63461;51.416;6.758;2022-09-27T15:36:57;13.00;99.90
74901;DHT22;63461;51.416;6.758;2022-09-27T15:39:46;12.90;99.90
74901;DHT22;63461;51.416;6.758;2022-09-27T15:42:57;13.10;99.90
74901;DHT22;63461;51.416;6.758;2022-09-27T15:45:49;12.90;99.90
74901;DHT22;63461;51.416;6.758;2022-09-27T15:48:33;12.60;99.90
74901;DHT22;63461;51.416;6.758;2022-09-27T15:51:41;12.40;99.90
74901;DHT22;63461;51.416;6.758;2022-09-27T15:54:28;12.10;99.90
74901;DHT22;63461;51.416;6.758;2022-09-27T15:57:13;12.10;99.90
74901;DHT22;63461;51.416;6.758;2022-09-27T15:59:57;12.30;99.90
74901;DHT22;63461;51.416;6.758;2022-09-27T16:02:42;12.20;99.90
74901;DHT22;63461;51.416;6.758;2022-09-27T16:05:27;12.20;99.90
74901;DHT22;63461;51.416;6.758;2022-09-27T16:08:12;12.20;99.90
74901;DHT22;63461;51.416;6.758;2022-09-27T16:10:57;12.30;99.90
74901;DHT22;63461;51.416;6.758;2022-09-27T16:13:42;12.20;99.90
74901;DHT22;63461;51.416;6.758;2022-09-27T16:16:26;12.10;99.90
74901;DHT22;63461;51.416;6.758;2022-09-27T16:19:11;12.30;99.90
74901;DHT22;63461;51.416;6.758;2022-09-27T16:21:56;12.20;99.90
74901;DHT22;63461;51.416;6.758;2022-09-27T16:24:40;12.10;99.90
74901;DHT22;63461;51.416;6.758;2022-09-27T16:27:25;12.00;99.90
74901;DHT22;63461;51.416;6.758;2022-09-27T16:30:10;12.00;99.90
74901;DHT22;63461;51.416;6.758;2022-09-27T16:32:55;11.90;99.90
74901;DHT22;63461;51.416;6.758;2022-09-27T16:35:40;12.00;99.90
74901;DHT22;63461;51.416;6.758;2022-09-27T16:38:24;11.90;99.90
74901;DHT22;63461;51.416;6.758;2022-09-27T16:41:10;11.90;99.90
74901;DHT22;63461;51.416;6.758;2022-09-27T16:43:54;11.90;99.90
74901;DHT22;63461;51.416;6.758;2022-09-27T16:46:40;12.00;99.90
74901;DHT22;63461;51.416;6.758;2022-09-27T16:49:24;11.90;99.90
74901;DHT22;63461;51.416;6.758;2022-09-27T16:52:29;11.80;99.90
74901;DHT22;63461;51.416;6.758;2022-09-27T16:55:18;11.90;99.90
74901;DHT22;63461;51.416;6.758;2022-09-27T16:58:04;11.90;99.90
74901;DHT22;63461;51.416;6.758;2022-09-27T17:00:50;11.80;99.90
74901;DHT22;63461;51.416;6.758;2022-09-27T17:03:34;11.80;99.90
74901;DHT22;63461;51.416;6.758;2022-09-27T17:06:20;11.80;99.90
74901;DHT22;63461;51.416;6.758;2022-09-27T17:09:04;11.80;99.90
74901;DHT22;63461;51.416;6.758;2022-09-27T17:11:49;11.60;99.90
74901;DHT22;63461;51.416;6.758;2022-09-27T17:14:36;11.60;99.90
74901;DHT22;63461;51.416;6.758;2022-09-27T17:17:20;11.60;99.90
74901;DHT22;63461;51.416;6.758;2022-09-27T17:20:07;11.70;99.90
74901;DHT22;63461;51.416;6.758;2022-09-27T17:22:51;11.70;99.90
74901;DHT22;63461;51.416;6.758;2022-09-27T17:25:36;11.60;99.90
74901;DHT22;63461;51.416;6.758;2022-09-27T17:28:22;11.60;99.90
74901;DHT22;63461;51.416;6.758;2022-09-27T17:31:08;11.50;99.90
74901;DHT22;63461;51.416;6.758;2022-09-27T17:33:54;11.60;99.90
74901;DHT22;63461;51.416;6.758;2022-09-27T17:36:40;11.60;99.90
74901;DHT22;63461;51.416;6.758;2022-09-27T17:39:25;11.60;99.90
74901;DHT22;63461;51.416;6.758;2022-09-27T17:42:09;11.50;99.90
74901;DHT22;63461;51.416;6.758;2022-09-27T17:44:54;11.60;99.90
74901;DHT22;63461;51.416;6.758;2022-09-27T17:47:38;11.50;99.90
74901;DHT22;63461;51.416;6.758;2022-09-27T17:50:45;11.50;99.90
74901;DHT22;63461;51.416;6.758;2022-09-27T17:53:29;11.50;99.90
74901;DHT22;63461;51.416;6.758;2022-09-27T17:56:14;11.40;99.90
74901;DHT22;63461;51.416;6.758;2022-09-27T17:58:58;11.50;99.90
74901;DHT22;63461;51.416;6.758;2022-09-27T18:01:45;11.40;99.90
74901;DHT22;63461;51.416;6.758;2022-09-27T18:04:30;11.40;99.90
74901;DHT22;63461;51.416;6.758;2022-09-27T18:07:15;11.50;99.90
74901;DHT22;63461;51.416;6.758;2022-09-27T18:09:59;11.50;99.90
74901;DHT22;63461;51.416;6.758;2022-09-27T18:12:43;11.50;99.90
74901;DHT22;63461;51.416;6.758;2022-09-27T18:15:28;11.60;99.90
74901;DHT22;63461;51.416;6.758;2022-09-27T18:18:12;11.50;99.90
74901;DHT22;63461;51.416;6.758;2022-09-27T18:21:07;11.60;99.90
74901;DHT22;63461;51.416;6.758;2022-09-27T18:23:55;11.60;99.90
74901;DHT22;63461;51.416;6.758;2022-09-27T18:26:40;11.60;99.90
74901;DHT22;63461;51.416;6.758;2022-09-27T18:29:25;11.60;99.90
74901;DHT22;63461;51.416;6.758;2022-09-27T18:32:11;11.60;99.90
74901;DHT22;63461;51.416;6.758;2022-09-27T18:34:55;11.50;99.90
74901;DHT22;63461;51.416;6.758;2022-09-27T18:37:39;11.50;99.90
74901;DHT22;63461;51.416;6.758;2022-09-27T18:40:24;11.60;99.90
74901;DHT22;63461;51.416;6.758;2022-09-27T18:43:09;11.50;99.90
74901;DHT22;63461;51.416;6.758;2022-09-27T18:45:53;11.40;99.90
74901;DHT22;63461;51.416;6.758;2022-09-27T18:48:38;11.30;99.90
74901;DHT22;63461;51.416;6.758;2022-09-27T18:51:24;11.30;99.90
74901;DHT22;63461;51.416;6.758;2022-09-27T18:54:20;11.40;99.90
74901;DHT22;63461;51.416;6.758;2022-09-27T18:57:04;11.40;99.90
74901;DHT22;63461;51.416;6.758;2022-09-27T18:59:48;11.30;99.90
74901;DHT22;63461;51.416;6.758;2022-09-27T19:02:32;11.40;99.90
74901;DHT22;63461;51.416;6.758;2022-09-27T19:05:17;11.40;99.90
74901;DHT22;63461;51.416;6.758;2022-09-27T19:08:01;11.40;99.90
74901;DHT22;63461;51.416;6.758;2022-09-27T19:10:46;11.40;99.90
74901;DHT22;63461;51.416;6.758;2022-09-27T19:13:30;11.30;99.90
74901;DHT22;63461;51.416;6.758;2022-09-27T19:16:14;11.40;99.90
74901;DHT22;63461;51.416;6.758;2022-09-27T19:18:58;11.30;99.90
74901;DHT22;63461;51.416;6.758;2022-09-27T19:21:43;11.30;99.90
74901;DHT22;63461;51.416;6.758;2022-09-27T19:24:27;11.30;99.90
74901;DHT22;63461;51.416;6.758;2022-09-27T19:27:12;11.30;99.90
74901;DHT22;63461;51.416;6.758;2022-09-27T19:29:56;11.20;99.90
74901;DHT22;63461;51.416;6.758;2022-09-27T19:32:44;11.30;99.90
74901;DHT22;63461;51.416;6.758;2022-09-27T19:35:28;11.30;99.90
74901;DHT22;63461;51.416;6.758;2022-09-27T19:38:12;11.40;99.90
74901;DHT22;63461;51.416;6.758;2022-09-27T19:40:57;11.30;99.90
74901;DHT22;63461;51.416;6.758;2022-09-27T19:43:41;11.40;99.90
74901;DHT22;63461;51.416;6.758;2022-09-27T19:46:30;11.30;99.90
74901;DHT22;63461;51.416;6.758;2022-09-27T19:49:14;11.40;99.90
74901;DHT22;63461;51.416;6.758;2022-09-27T19:52:01;11.30;99.90
74901;DHT22;63461;51.416;6.758;2022-09-27T19:54:47;11.30;99.90
74901;DHT22;63461;51.416;6.758;2022-09-27T19:57:32;11.30;99.90
74901;DHT22;63461;51.416;6.758;2022-09-27T20:00:16;11.30;99.90
74901;DHT22;63461;51.416;6.758;2022-09-27T20:03:01;11.30;99.90
74901;DHT22;63461;51.416;6.758;2022-09-27T20:05:51;11.30;99.90
74901;DHT22;63461;51.416;6.758;2022-09-27T20:08:36;11.40;99.90
74901;DHT22;63461;51.416;6.758;2022-09-27T20:11:22;11.40;99.90
74901;DHT22;63461;51.416;6.758;2022-09-27T20:14:07;11.30;99.90
74901;DHT22;63461;51.416;6.758;2022-09-27T20:16:51;11.40;99.90
74901;DHT22;63461;51.416;6.758;2022-09-27T20:19:36;11.30;99.90
74901;DHT22;63461;51.416;6.758;2022-09-27T20:22:21;11.30;99.90
74901;DHT22;63461;51.416;6.758;2022-09-27T20:25:06;11.30;99.90
74901;DHT22;63461;51.416;6.758;2022-09-27T20:27:51;11.30;99.90
74901;DHT22;63461;51.416;6.758;2022-09-27T20:30:35;11.30;99.90
74901;DHT22;63461;51.416;6.758;2022-09-27T20:33:20;11.30;99.90
74901;DHT22;63461;51.416;6.758;2022-09-27T20:36:31;11.30;99.90
74901;DHT22;63461;51.416;6.758;2022-09-27T20:39:15;11.30;99.90
74901;DHT22;63461;51.416;6.758;2022-09-27T20:42:00;11.30;99.90
74901;DHT22;63461;51.416;6.758;2022-09-27T20:44:44;11.30;99.90
74901;DHT22;63461;51.416;6.758;2022-09-27T20:47:29;11.30;99.90
74901;DHT22;63461;51.416;6.758;2022-09-27T20:50:13;11.20;99.90
74901;DHT22;63461;51.416;6.758;2022-09-27T20:52:58;11.20;99.90
74901;DHT22;63461;51.416;6.758;2022-09-27T20:55:42;11.20;99.90